Estación Meteorológica Peña el Pijo (Robertgarden) [ 07/23/19 01:25:53 CEST ]

Fecha Hora Presion(HPa) Temp (°C) Humedad % Rocio (°C) Viento ( m/s) Direccion Lluvia 1Hora(mm) Lluvia 24H(mm) LLuvia Total(mm)
2019-May-19 01:01:40 1003.500 13.4 65 6.9         318.05
2019-May-19 02:01:43 1003.400 13.6 66 7.3         318.05
2019-May-19 03:02:08 1002.700 12.8 65 6.4         318.05
2019-May-19 04:02:25 1002.400 12.5 66 6.3         318.05
2019-May-19 05:10:07 1002.100 12.9 68 7.1         318.05
2019-May-19 06:01:49 1002.100 11.6 67 5.7         318.05
2019-May-19 07:01:46 1002.200 11.1 69 5.7         318.05
2019-May-19 08:01:41 1002.300 11.7 64 5.1         318.05
2019-May-19 09:01:42 1002.500 12.8 51 2.9         318.05
2019-May-19 10:01:29 1002.600 15.3 41 2.1         318.05
2019-May-19 11:01:36 1002.600 15.3 36 0.2         318.05
2019-May-19 12:01:29 1002.600 19.5 31 1.9         318.05
2019-May-19 13:01:33 1002.600 19.8 30 1.7         318.05
2019-May-19 14:01:22 1002.500 20.3 29 1.6 0.7 N     318.05
2019-May-19 15:01:43 1002.300 21.3 27 1.4 0.9 WNW     318.05
2019-May-19 16:01:36 1002.500 21.2 27 1.3         318.05
2019-May-19 17:01:48 1002.500 19.6 27 -0.1         318.05
2019-May-19 18:01:39 1002.600 18.6 30 0.7         318.05
2019-May-19 19:01:43 1002.600 19.1 30 1.2         318.05
2019-May-19 20:01:52 1002.600 16.6 34 0.5         318.05
2019-May-19 21:01:44 1003.000 15.0 38 0.7         318.05
2019-May-19 22:01:46 1003.600 12.7 51 2.8         318.05
2019-May-19 23:01:47 1004.200 12.7 60 5.1         318.05

Temperatura Máxima:21°    Temperatura Mínima:11°
Presión Máxima:1004.200 Hpa    Presión Mínima:1002.100 Hpa


Volver